sensor_id;sensor_type;location;lat;lon;timestamp;temperature;humidity
34833;DHT22;55941;50.800;4.342;2022-11-14T00:00:12;6.80;99.90
34833;DHT22;55941;50.800;4.342;2022-11-14T00:02:37;6.80;99.90
34833;DHT22;55941;50.800;4.342;2022-11-14T00:05:04;6.80;99.90
34833;DHT22;55941;50.800;4.342;2022-11-14T00:07:32;6.80;99.90
34833;DHT22;55941;50.800;4.342;2022-11-14T00:09:58;6.90;99.90
34833;DHT22;55941;50.800;4.342;2022-11-14T00:12:24;6.80;99.90
34833;DHT22;55941;50.800;4.342;2022-11-14T00:14:50;6.90;99.90
34833;DHT22;55941;50.800;4.342;2022-11-14T00:17:16;6.80;99.90
34833;DHT22;55941;50.800;4.342;2022-11-14T00:19:42;6.90;99.90
34833;DHT22;55941;50.800;4.342;2022-11-14T00:22:07;6.80;99.90
34833;DHT22;55941;50.800;4.342;2022-11-14T00:24:33;6.70;99.90
34833;DHT22;55941;50.800;4.342;2022-11-14T00:26:58;6.80;99.90
34833;DHT22;55941;50.800;4.342;2022-11-14T00:29:25;6.80;99.90
34833;DHT22;55941;50.800;4.342;2022-11-14T00:31:51;6.70;99.90
34833;DHT22;55941;50.800;4.342;2022-11-14T00:34:17;6.70;99.90
34833;DHT22;55941;50.800;4.342;2022-11-14T00:36:43;6.70;99.90
34833;DHT22;55941;50.800;4.342;2022-11-14T00:39:11;6.80;99.90
34833;DHT22;55941;50.800;4.342;2022-11-14T00:41:38;6.70;99.90
34833;DHT22;55941;50.800;4.342;2022-11-14T00:44:03;6.80;99.90
34833;DHT22;55941;50.800;4.342;2022-11-14T00:46:29;6.80;99.90
34833;DHT22;55941;50.800;4.342;2022-11-14T00:48:55;6.80;99.90
34833;DHT22;55941;50.800;4.342;2022-11-14T00:51:20;6.80;99.90
34833;DHT22;55941;50.800;4.342;2022-11-14T00:53:46;6.70;99.90
34833;DHT22;55941;50.800;4.342;2022-11-14T00:56:12;6.80;99.90
34833;DHT22;55941;50.800;4.342;2022-11-14T00:58:38;6.90;99.90
34833;DHT22;55941;50.800;4.342;2022-11-14T01:01:04;6.80;99.90
34833;DHT22;55941;50.800;4.342;2022-11-14T01:03:30;6.90;99.90
34833;DHT22;55941;50.800;4.342;2022-11-14T01:06:02;6.80;99.90
34833;DHT22;55941;50.800;4.342;2022-11-14T01:08:29;6.80;99.90
34833;DHT22;55941;50.800;4.342;2022-11-14T01:10:54;6.70;99.90
34833;DHT22;55941;50.800;4.342;2022-11-14T01:13:20;6.60;99.90
34833;DHT22;55941;50.800;4.342;2022-11-14T01:15:47;6.60;99.90
34833;DHT22;55941;50.800;4.342;2022-11-14T01:18:16;6.60;99.90
34833;DHT22;55941;50.800;4.342;2022-11-14T01:20:45;6.60;99.90
34833;DHT22;55941;50.800;4.342;2022-11-14T01:23:12;6.50;99.90
34833;DHT22;55941;50.800;4.342;2022-11-14T01:25:40;6.60;99.90
34833;DHT22;55941;50.800;4.342;2022-11-14T01:28:13;6.60;99.90
34833;DHT22;55941;50.800;4.342;2022-11-14T01:30:39;6.60;99.90
34833;DHT22;55941;50.800;4.342;2022-11-14T01:33:04;6.60;99.90
34833;DHT22;55941;50.800;4.342;2022-11-14T01:35:31;6.50;99.90
34833;DHT22;55941;50.800;4.342;2022-11-14T01:37:57;6.50;99.90
34833;DHT22;55941;50.800;4.342;2022-11-14T01:40:23;6.40;99.90
34833;DHT22;55941;50.800;4.342;2022-11-14T01:45:59;6.40;99.90
34833;DHT22;55941;50.800;4.342;2022-11-14T01:50:58;6.30;99.90
34833;DHT22;55941;50.800;4.342;2022-11-14T01:53:25;6.30;99.90
34833;DHT22;55941;50.800;4.342;2022-11-14T01:55:51;6.50;99.90
34833;DHT22;55941;50.800;4.342;2022-11-14T01:58:18;6.40;99.90
34833;DHT22;55941;50.800;4.342;2022-11-14T02:00:44;6.40;99.90
34833;DHT22;55941;50.800;4.342;2022-11-14T02:03:16;6.40;99.90
34833;DHT22;55941;50.800;4.342;2022-11-14T02:05:43;6.40;99.90
34833;DHT22;55941;50.800;4.342;2022-11-14T02:08:12;6.40;99.90
34833;DHT22;55941;50.800;4.342;2022-11-14T02:10:38;6.40;99.90
34833;DHT22;55941;50.800;4.342;2022-11-14T02:13:04;6.30;99.90
34833;DHT22;55941;50.800;4.342;2022-11-14T02:15:31;6.40;99.90
34833;DHT22;55941;50.800;4.342;2022-11-14T02:17:57;6.40;99.90
34833;DHT22;55941;50.800;4.342;2022-11-14T02:20:24;6.30;99.90
34833;DHT22;55941;50.800;4.342;2022-11-14T02:22:53;6.30;99.90
34833;DHT22;55941;50.800;4.342;2022-11-14T02:25:19;6.30;99.90
34833;DHT22;55941;50.800;4.342;2022-11-14T02:27:45;6.30;99.90
34833;DHT22;55941;50.800;4.342;2022-11-14T02:30:15;6.30;99.90
34833;DHT22;55941;50.800;4.342;2022-11-14T02:32:41;6.30;99.90
34833;DHT22;55941;50.800;4.342;2022-11-14T02:35:07;6.30;99.90
34833;DHT22;55941;50.800;4.342;2022-11-14T02:37:33;6.20;99.90
34833;DHT22;55941;50.800;4.342;2022-11-14T02:39:59;6.20;99.90
34833;DHT22;55941;50.800;4.342;2022-11-14T02:42:24;6.30;99.90
34833;DHT22;55941;50.800;4.342;2022-11-14T02:44:50;6.30;99.90
34833;DHT22;55941;50.800;4.342;2022-11-14T02:47:16;6.20;99.90
34833;DHT22;55941;50.800;4.342;2022-11-14T02:49:41;6.20;99.90
34833;DHT22;55941;50.800;4.342;2022-11-14T02:52:07;6.30;99.90
34833;DHT22;55941;50.800;4.342;2022-11-14T02:54:33;6.20;99.90
34833;DHT22;55941;50.800;4.342;2022-11-14T02:56:58;6.20;99.90
34833;DHT22;55941;50.800;4.342;2022-11-14T02:59:24;6.10;99.90
34833;DHT22;55941;50.800;4.342;2022-11-14T03:01:50;6.20;99.90
34833;DHT22;55941;50.800;4.342;2022-11-14T03:04:15;6.20;99.90
34833;DHT22;55941;50.800;4.342;2022-11-14T03:06:41;6.10;99.90
34833;DHT22;55941;50.800;4.342;2022-11-14T03:09:07;6.20;99.90
34833;DHT22;55941;50.800;4.342;2022-11-14T03:11:33;6.10;99.90
34833;DHT22;55941;50.800;4.342;2022-11-14T03:14:00;6.00;99.90
34833;DHT22;55941;50.800;4.342;2022-11-14T03:16:26;5.90;99.90
34833;DHT22;55941;50.800;4.342;2022-11-14T03:18:52;5.80;99.90
34833;DHT22;55941;50.800;4.342;2022-11-14T03:21:19;5.90;99.90
34833;DHT22;55941;50.800;4.342;2022-11-14T03:23:45;5.90;99.90
34833;DHT22;55941;50.800;4.342;2022-11-14T03:26:12;5.90;99.90
34833;DHT22;55941;50.800;4.342;2022-11-14T03:28:39;5.90;99.90
34833;DHT22;55941;50.800;4.342;2022-11-14T03:31:07;5.80;99.90
34833;DHT22;55941;50.800;4.342;2022-11-14T03:33:34;5.80;99.90
34833;DHT22;55941;50.800;4.342;2022-11-14T03:36:00;5.70;99.90
34833;DHT22;55941;50.800;4.342;2022-11-14T03:38:26;5.70;99.90
34833;DHT22;55941;50.800;4.342;2022-11-14T03:40:52;5.70;99.90
34833;DHT22;55941;50.800;4.342;2022-11-14T03:43:19;5.70;99.90
34833;DHT22;55941;50.800;4.342;2022-11-14T03:45:44;5.80;99.90
34833;DHT22;55941;50.800;4.342;2022-11-14T03:48:12;5.80;99.90
34833;DHT22;55941;50.800;4.342;2022-11-14T03:50:39;5.70;99.90
34833;DHT22;55941;50.800;4.342;2022-11-14T03:53:05;5.80;99.90
34833;DHT22;55941;50.800;4.342;2022-11-14T03:55:31;5.80;99.90
34833;DHT22;55941;50.800;4.342;2022-11-14T03:57:57;5.80;99.90
34833;DHT22;55941;50.800;4.342;2022-11-14T04:00:23;5.70;99.90
34833;DHT22;55941;50.800;4.342;2022-11-14T04:02:49;5.70;99.90
34833;DHT22;55941;50.800;4.342;2022-11-14T04:05:14;5.70;99.90
34833;DHT22;55941;50.800;4.342;2022-11-14T04:07:40;5.70;99.90
34833;DHT22;55941;50.800;4.342;2022-11-14T04:10:06;5.60;99.90
34833;DHT22;55941;50.800;4.342;2022-11-14T04:12:32;5.60;99.90
34833;DHT22;55941;50.800;4.342;2022-11-14T04:14:58;5.70;99.90
34833;DHT22;55941;50.800;4.342;2022-11-14T04:17:23;5.70;99.90
34833;DHT22;55941;50.800;4.342;2022-11-14T04:19:50;5.50;99.90
34833;DHT22;55941;50.800;4.342;2022-11-14T04:22:15;5.50;99.90
34833;DHT22;55941;50.800;4.342;2022-11-14T04:24:41;5.50;99.90
34833;DHT22;55941;50.800;4.342;2022-11-14T04:27:06;5.40;99.90
34833;DHT22;55941;50.800;4.342;2022-11-14T04:29:32;5.40;99.90
34833;DHT22;55941;50.800;4.342;2022-11-14T04:31:58;5.40;99.90
34833;DHT22;55941;50.800;4.342;2022-11-14T04:34:24;5.50;99.90
34833;DHT22;55941;50.800;4.342;2022-11-14T04:36:49;5.50;99.90
34833;DHT22;55941;50.800;4.342;2022-11-14T04:39:18;5.40;99.90
34833;DHT22;55941;50.800;4.342;2022-11-14T04:41:44;5.50;99.90
34833;DHT22;55941;50.800;4.342;2022-11-14T04:44:09;5.50;99.90
34833;DHT22;55941;50.800;4.342;2022-11-14T04:46:35;5.50;99.90
34833;DHT22;55941;50.800;4.342;2022-11-14T04:49:02;5.40;99.90
34833;DHT22;55941;50.800;4.342;2022-11-14T04:51:28;5.50;99.90
34833;DHT22;55941;50.800;4.342;2022-11-14T04:53:53;5.50;99.90
34833;DHT22;55941;50.800;4.342;2022-11-14T04:56:21;5.30;99.90
34833;DHT22;55941;50.800;4.342;2022-11-14T04:58:48;5.50;99.90
34833;DHT22;55941;50.800;4.342;2022-11-14T05:01:14;5.40;99.90
34833;DHT22;55941;50.800;4.342;2022-11-14T05:03:40;5.40;99.90
34833;DHT22;55941;50.800;4.342;2022-11-14T05:06:06;5.40;99.90
34833;DHT22;55941;50.800;4.342;2022-11-14T05:08:33;5.40;99.90
34833;DHT22;55941;50.800;4.342;2022-11-14T05:11:00;5.40;99.90
34833;DHT22;55941;50.800;4.342;2022-11-14T05:13:25;5.30;99.90
34833;DHT22;55941;50.800;4.342;2022-11-14T05:15:51;5.30;99.90
34833;DHT22;55941;50.800;4.342;2022-11-14T05:18:18;5.40;99.90
34833;DHT22;55941;50.800;4.342;2022-11-14T05:20:43;5.70;99.90
34833;DHT22;55941;50.800;4.342;2022-11-14T05:23:20;5.70;99.90
34833;DHT22;55941;50.800;4.342;2022-11-14T05:25:46;5.50;99.90
34833;DHT22;55941;50.800;4.342;2022-11-14T05:28:12;5.40;99.90
34833;DHT22;55941;50.800;4.342;2022-11-14T05:30:38;5.20;99.90
34833;DHT22;55941;50.800;4.342;2022-11-14T05:33:03;5.30;99.90
34833;DHT22;55941;50.800;4.342;2022-11-14T05:35:30;5.20;99.90
34833;DHT22;55941;50.800;4.342;2022-11-14T05:37:59;5.10;99.90
34833;DHT22;55941;50.800;4.342;2022-11-14T05:40:24;5.10;99.90
34833;DHT22;55941;50.800;4.342;2022-11-14T05:42:54;5.10;99.90
34833;DHT22;55941;50.800;4.342;2022-11-14T05:45:19;5.00;99.90
34833;DHT22;55941;50.800;4.342;2022-11-14T05:47:45;4.90;99.90
34833;DHT22;55941;50.800;4.342;2022-11-14T05:50:11;5.00;99.90
34833;DHT22;55941;50.800;4.342;2022-11-14T05:52:36;5.00;99.90
34833;DHT22;55941;50.800;4.342;2022-11-14T05:55:02;5.00;99.90
34833;DHT22;55941;50.800;4.342;2022-11-14T05:57:29;4.90;99.90
34833;DHT22;55941;50.800;4.342;2022-11-14T05:59:55;4.80;99.90
34833;DHT22;55941;50.800;4.342;2022-11-14T06:02:22;4.80;99.90
34833;DHT22;55941;50.800;4.342;2022-11-14T06:04:48;4.90;99.90
34833;DHT22;55941;50.800;4.342;2022-11-14T06:07:14;4.80;99.90
34833;DHT22;55941;50.800;4.342;2022-11-14T06:09:40;4.80;99.90
34833;DHT22;55941;50.800;4.342;2022-11-14T06:12:06;4.70;99.90
34833;DHT22;55941;50.800;4.342;2022-11-14T06:14:32;4.70;99.90
34833;DHT22;55941;50.800;4.342;2022-11-14T06:16:58;4.70;99.90
34833;DHT22;55941;50.800;4.342;2022-11-14T06:19:24;4.70;99.90
34833;DHT22;55941;50.800;4.342;2022-11-14T06:21:50;4.80;99.90
34833;DHT22;55941;50.800;4.342;2022-11-14T06:24:17;4.80;99.90
34833;DHT22;55941;50.800;4.342;2022-11-14T06:26:42;4.70;99.90
34833;DHT22;55941;50.800;4.342;2022-11-14T06:29:09;4.80;99.90
34833;DHT22;55941;50.800;4.342;2022-11-14T06:31:35;4.70;99.90
34833;DHT22;55941;50.800;4.342;2022-11-14T06:34:00;4.70;99.90
34833;DHT22;55941;50.800;4.342;2022-11-14T06:36:28;4.80;99.90
34833;DHT22;55941;50.800;4.342;2022-11-14T06:38:54;4.70;99.90
34833;DHT22;55941;50.800;4.342;2022-11-14T06:41:21;4.80;99.90
34833;DHT22;55941;50.800;4.342;2022-11-14T06:43:48;4.70;99.90
34833;DHT22;55941;50.800;4.342;2022-11-14T06:46:17;4.70;99.90
34833;DHT22;55941;50.800;4.342;2022-11-14T06:48:45;4.70;99.90
34833;DHT22;55941;50.800;4.342;2022-11-14T06:51:13;4.80;99.90
34833;DHT22;55941;50.800;4.342;2022-11-14T06:53:40;4.70;99.90
34833;DHT22;55941;50.800;4.342;2022-11-14T06:56:09;4.70;99.90
34833;DHT22;55941;50.800;4.342;2022-11-14T06:58:39;4.80;99.90
34833;DHT22;55941;50.800;4.342;2022-11-14T07:01:07;4.80;99.90
34833;DHT22;55941;50.800;4.342;2022-11-14T07:03:35;4.80;99.90
34833;DHT22;55941;50.800;4.342;2022-11-14T07:06:03;4.80;99.90
34833;DHT22;55941;50.800;4.342;2022-11-14T07:08:30;4.90;99.90
34833;DHT22;55941;50.800;4.342;2022-11-14T07:11:04;4.90;99.90
34833;DHT22;55941;50.800;4.342;2022-11-14T07:13:31;4.90;99.90
34833;DHT22;55941;50.800;4.342;2022-11-14T07:15:58;4.90;99.90
34833;DHT22;55941;50.800;4.342;2022-11-14T07:18:24;4.90;99.90
34833;DHT22;55941;50.800;4.342;2022-11-14T07:20:56;4.90;99.90
34833;DHT22;55941;50.800;4.342;2022-11-14T07:23:23;4.90;99.90
34833;DHT22;55941;50.800;4.342;2022-11-14T07:25:49;5.00;99.90
34833;DHT22;55941;50.800;4.342;2022-11-14T07:28:14;5.00;99.90
34833;DHT22;55941;50.800;4.342;2022-11-14T07:30:40;5.00;99.90
34833;DHT22;55941;50.800;4.342;2022-11-14T07:33:06;5.10;99.90
34833;DHT22;55941;50.800;4.342;2022-11-14T07:35:32;5.00;99.90
34833;DHT22;55941;50.800;4.342;2022-11-14T07:38:03;5.10;99.90
34833;DHT22;55941;50.800;4.342;2022-11-14T07:40:29;5.20;99.90
34833;DHT22;55941;50.800;4.342;2022-11-14T07:43:01;5.10;99.90
34833;DHT22;55941;50.800;4.342;2022-11-14T07:45:28;5.20;99.90
34833;DHT22;55941;50.800;4.342;2022-11-14T07:47:55;5.30;99.90
34833;DHT22;55941;50.800;4.342;2022-11-14T07:50:22;5.60;99.90
34833;DHT22;55941;50.800;4.342;2022-11-14T07:52:55;5.70;99.90
34833;DHT22;55941;50.800;4.342;2022-11-14T07:55:22;5.80;99.90
34833;DHT22;55941;50.800;4.342;2022-11-14T07:57:52;5.70;99.90
34833;DHT22;55941;50.800;4.342;2022-11-14T08:00:18;5.70;99.90
34833;DHT22;55941;50.800;4.342;2022-11-14T08:02:45;5.60;99.90
34833;DHT22;55941;50.800;4.342;2022-11-14T08:05:11;5.50;99.90
34833;DHT22;55941;50.800;4.342;2022-11-14T08:07:37;5.60;99.90
34833;DHT22;55941;50.800;4.342;2022-11-14T08:10:04;5.70;99.90
34833;DHT22;55941;50.800;4.342;2022-11-14T08:12:30;5.50;99.90
34833;DHT22;55941;50.800;4.342;2022-11-14T08:14:56;5.70;99.90
34833;DHT22;55941;50.800;4.342;2022-11-14T08:17:22;5.70;99.90
34833;DHT22;55941;50.800;4.342;2022-11-14T08:19:48;5.70;99.90
34833;DHT22;55941;50.800;4.342;2022-11-14T08:22:17;5.70;99.90
34833;DHT22;55941;50.800;4.342;2022-11-14T08:24:43;5.80;99.90
34833;DHT22;55941;50.800;4.342;2022-11-14T08:27:09;5.80;99.90
34833;DHT22;55941;50.800;4.342;2022-11-14T08:29:35;6.00;99.90
34833;DHT22;55941;50.800;4.342;2022-11-14T08:32:00;5.90;99.90
34833;DHT22;55941;50.800;4.342;2022-11-14T08:34:26;6.00;99.90
34833;DHT22;55941;50.800;4.342;2022-11-14T08:36:53;6.10;99.90
34833;DHT22;55941;50.800;4.342;2022-11-14T08:39:21;6.10;99.90
34833;DHT22;55941;50.800;4.342;2022-11-14T08:41:47;6.30;99.90
34833;DHT22;55941;50.800;4.342;2022-11-14T08:44:14;6.30;99.90
34833;DHT22;55941;50.800;4.342;2022-11-14T08:46:40;6.30;99.90
34833;DHT22;55941;50.800;4.342;2022-11-14T08:49:06;6.40;99.90
34833;DHT22;55941;50.800;4.342;2022-11-14T08:51:32;6.40;99.90
34833;DHT22;55941;50.800;4.342;2022-11-14T08:53:57;6.50;99.90
34833;DHT22;55941;50.800;4.342;2022-11-14T08:56:23;6.80;99.90
34833;DHT22;55941;50.800;4.342;2022-11-14T08:58:48;6.90;99.90
34833;DHT22;55941;50.800;4.342;2022-11-14T09:01:14;7.20;99.90
34833;DHT22;55941;50.800;4.342;2022-11-14T09:03:40;7.20;99.90
34833;DHT22;55941;50.800;4.342;2022-11-14T09:06:06;7.30;99.90
34833;DHT22;55941;50.800;4.342;2022-11-14T09:08:32;7.50;99.90
34833;DHT22;55941;50.800;4.342;2022-11-14T09:11:02;7.40;99.90
34833;DHT22;55941;50.800;4.342;2022-11-14T09:13:31;7.40;99.90
34833;DHT22;55941;50.800;4.342;2022-11-14T09:15:57;7.40;99.90
34833;DHT22;55941;50.800;4.342;2022-11-14T09:18:23;7.50;99.90
34833;DHT22;55941;50.800;4.342;2022-11-14T09:20:49;7.50;99.90
34833;DHT22;55941;50.800;4.342;2022-11-14T09:23:15;7.60;99.90
34833;DHT22;55941;50.800;4.342;2022-11-14T09:25:40;7.80;99.90
34833;DHT22;55941;50.800;4.342;2022-11-14T09:28:07;7.90;99.90
34833;DHT22;55941;50.800;4.342;2022-11-14T09:30:34;7.90;99.90
34833;DHT22;55941;50.800;4.342;2022-11-14T09:33:04;7.90;99.90
34833;DHT22;55941;50.800;4.342;2022-11-14T09:35:30;7.90;99.90
34833;DHT22;55941;50.800;4.342;2022-11-14T09:38:05;8.00;99.90
34833;DHT22;55941;50.800;4.342;2022-11-14T09:40:51;7.90;99.90
34833;DHT22;55941;50.800;4.342;2022-11-14T09:45:51;8.00;99.90
34833;DHT22;55941;50.800;4.342;2022-11-14T09:48:22;8.00;99.90
34833;DHT22;55941;50.800;4.342;2022-11-14T09:51:16;8.00;99.90
34833;DHT22;55941;50.800;4.342;2022-11-14T09:53:49;8.10;99.90
34833;DHT22;55941;50.800;4.342;2022-11-14T09:56:21;8.00;99.90
34833;DHT22;55941;50.800;4.342;2022-11-14T09:58:49;8.00;99.90
34833;DHT22;55941;50.800;4.342;2022-11-14T10:04:24;8.10;99.90
34833;DHT22;55941;50.800;4.342;2022-11-14T10:07:15;8.20;99.90
34833;DHT22;55941;50.800;4.342;2022-11-14T10:10:00;8.30;99.90
34833;DHT22;55941;50.800;4.342;2022-11-14T10:15:23;8.40;99.90
34833;DHT22;55941;50.800;4.342;2022-11-14T10:18:10;8.60;99.90
34833;DHT22;55941;50.800;4.342;2022-11-14T10:31:41;8.50;99.90
34833;DHT22;55941;50.800;4.342;2022-11-14T10:34:10;8.60;99.90
34833;DHT22;55941;50.800;4.342;2022-11-14T10:37:01;8.60;99.90
34833;DHT22;55941;50.800;4.342;2022-11-14T10:39:37;8.60;99.90
34833;DHT22;55941;50.800;4.342;2022-11-14T10:42:38;8.90;99.90
34833;DHT22;55941;50.800;4.342;2022-11-14T10:45:07;8.80;99.90
34833;DHT22;55941;50.800;4.342;2022-11-14T10:47:42;8.80;99.90
34833;DHT22;55941;50.800;4.342;2022-11-14T10:50:27;9.00;99.90
34833;DHT22;55941;50.800;4.342;2022-11-14T10:52:57;9.30;99.90
34833;DHT22;55941;50.800;4.342;2022-11-14T10:55:25;9.40;99.90
34833;DHT22;55941;50.800;4.342;2022-11-14T10:57:51;9.50;99.90
34833;DHT22;55941;50.800;4.342;2022-11-14T11:00:22;9.60;99.90
34833;DHT22;55941;50.800;4.342;2022-11-14T11:02:53;9.80;99.90
34833;DHT22;55941;50.800;4.342;2022-11-14T11:05:23;9.70;99.90
34833;DHT22;55941;50.800;4.342;2022-11-14T11:07:50;9.60;99.90
34833;DHT22;55941;50.800;4.342;2022-11-14T11:10:40;9.60;99.90
34833;DHT22;55941;50.800;4.342;2022-11-14T11:13:36;9.50;99.90
34833;DHT22;55941;50.800;4.342;2022-11-14T11:16:08;9.10;99.90
34833;DHT22;55941;50.800;4.342;2022-11-14T11:18:36;8.90;99.90
34833;DHT22;55941;50.800;4.342;2022-11-14T11:21:08;8.80;99.90
34833;DHT22;55941;50.800;4.342;2022-11-14T11:23:36;8.80;99.90
34833;DHT22;55941;50.800;4.342;2022-11-14T11:26:26;9.00;99.90
34833;DHT22;55941;50.800;4.342;2022-11-14T11:31:56;8.70;99.90
34833;DHT22;55941;50.800;4.342;2022-11-14T11:34:27;8.60;99.90
34833;DHT22;55941;50.800;4.342;2022-11-14T11:37:18;8.40;99.90
34833;DHT22;55941;50.800;4.342;2022-11-14T11:39:50;8.50;99.90
34833;DHT22;55941;50.800;4.342;2022-11-14T11:42:32;8.50;99.90
34833;DHT22;55941;50.800;4.342;2022-11-14T11:45:03;8.10;99.90
34833;DHT22;55941;50.800;4.342;2022-11-14T11:47:32;7.90;99.90
34833;DHT22;55941;50.800;4.342;2022-11-14T11:49:59;8.00;99.90
34833;DHT22;55941;50.800;4.342;2022-11-14T11:57:52;7.70;99.90
34833;DHT22;55941;50.800;4.342;2022-11-14T12:00:17;7.70;99.90
34833;DHT22;55941;50.800;4.342;2022-11-14T12:02:49;7.80;99.90
34833;DHT22;55941;50.800;4.342;2022-11-14T12:11:37;8.10;99.90
34833;DHT22;55941;50.800;4.342;2022-11-14T12:25:41;8.10;99.90
34833;DHT22;55941;50.800;4.342;2022-11-14T12:28:34;8.30;99.90
34833;DHT22;55941;50.800;4.342;2022-11-14T12:31:05;8.20;99.90
34833;DHT22;55941;50.800;4.342;2022-11-14T12:33:43;8.00;99.90
34833;DHT22;55941;50.800;4.342;2022-11-14T12:36:11;8.10;99.90
34833;DHT22;55941;50.800;4.342;2022-11-14T12:38:43;8.30;99.90
34833;DHT22;55941;50.800;4.342;2022-11-14T12:41:10;8.00;99.90
34833;DHT22;55941;50.800;4.342;2022-11-14T12:43:38;8.00;99.90
34833;DHT22;55941;50.800;4.342;2022-11-14T12:46:10;8.00;99.90
34833;DHT22;55941;50.800;4.342;2022-11-14T12:48:40;7.90;99.90
34833;DHT22;55941;50.800;4.342;2022-11-14T12:53:52;7.90;99.90
34833;DHT22;55941;50.800;4.342;2022-11-14T12:56:45;8.00;99.90
34833;DHT22;55941;50.800;4.342;2022-11-14T12:59:26;8.10;99.90
34833;DHT22;55941;50.800;4.342;2022-11-14T13:12:34;7.60;99.90
34833;DHT22;55941;50.800;4.342;2022-11-14T13:15:51;7.60;99.90
34833;DHT22;55941;50.800;4.342;2022-11-14T13:18:36;7.80;99.90
34833;DHT22;55941;50.800;4.342;2022-11-14T13:21:32;7.60;99.90
34833;DHT22;55941;50.800;4.342;2022-11-14T13:24:15;7.60;99.90
34833;DHT22;55941;50.800;4.342;2022-11-14T13:32:03;7.70;99.90
34833;DHT22;55941;50.800;4.342;2022-11-14T13:34:52;7.60;99.90
34833;DHT22;55941;50.800;4.342;2022-11-14T13:39:58;7.70;99.90
34833;DHT22;55941;50.800;4.342;2022-11-14T13:42:47;7.80;99.90
34833;DHT22;55941;50.800;4.342;2022-11-14T13:48:52;7.80;99.90
34833;DHT22;55941;50.800;4.342;2022-11-14T13:51:21;7.90;99.90
34833;DHT22;55941;50.800;4.342;2022-11-14T13:53:50;7.70;99.90
34833;DHT22;55941;50.800;4.342;2022-11-14T13:56:33;7.90;99.90
34833;DHT22;55941;50.800;4.342;2022-11-14T14:04:22;7.50;99.90
34833;DHT22;55941;50.800;4.342;2022-11-14T14:09:49;7.80;99.90
34833;DHT22;55941;50.800;4.342;2022-11-14T14:12:38;7.90;99.90
34833;DHT22;55941;50.800;4.342;2022-11-14T14:15:30;7.80;99.90
34833;DHT22;55941;50.800;4.342;2022-11-14T14:21:08;7.50;99.90
34833;DHT22;55941;50.800;4.342;2022-11-14T14:23:55;7.70;99.90
34833;DHT22;55941;50.800;4.342;2022-11-14T14:28:58;7.70;99.90
34833;DHT22;55941;50.800;4.342;2022-11-14T14:31:39;7.80;99.90
34833;DHT22;55941;50.800;4.342;2022-11-14T14:34:24;7.80;99.90
34833;DHT22;55941;50.800;4.342;2022-11-14T14:36:53;7.90;99.90
34833;DHT22;55941;50.800;4.342;2022-11-14T14:39:22;7.80;99.90
34833;DHT22;55941;50.800;4.342;2022-11-14T14:41:50;7.70;99.90
34833;DHT22;55941;50.800;4.342;2022-11-14T14:44:18;7.60;99.90
34833;DHT22;55941;50.800;4.342;2022-11-14T14:46:44;7.80;99.90
34833;DHT22;55941;50.800;4.342;2022-11-14T14:49:10;7.80;99.90
34833;DHT22;55941;50.800;4.342;2022-11-14T14:51:36;7.80;99.90
34833;DHT22;55941;50.800;4.342;2022-11-14T14:54:04;7.90;99.90
34833;DHT22;55941;50.800;4.342;2022-11-14T14:56:32;8.00;99.90
34833;DHT22;55941;50.800;4.342;2022-11-14T14:59:17;8.10;99.90
34833;DHT22;55941;50.800;4.342;2022-11-14T15:01:43;8.00;99.90
34833;DHT22;55941;50.800;4.342;2022-11-14T15:04:13;8.10;99.90
34833;DHT22;55941;50.800;4.342;2022-11-14T15:06:39;8.20;99.90
34833;DHT22;55941;50.800;4.342;2022-11-14T15:09:12;8.30;99.90
34833;DHT22;55941;50.800;4.342;2022-11-14T15:11:44;8.30;99.90
34833;DHT22;55941;50.800;4.342;2022-11-14T15:14:29;8.30;99.90
34833;DHT22;55941;50.800;4.342;2022-11-14T15:16:55;8.30;99.90
34833;DHT22;55941;50.800;4.342;2022-11-14T15:19:23;8.20;99.90
34833;DHT22;55941;50.800;4.342;2022-11-14T15:22:23;8.30;99.90
34833;DHT22;55941;50.800;4.342;2022-11-14T15:27:51;8.30;99.90
34833;DHT22;55941;50.800;4.342;2022-11-14T15:30:24;8.30;99.90
34833;DHT22;55941;50.800;4.342;2022-11-14T15:32:53;8.50;99.90
34833;DHT22;55941;50.800;4.342;2022-11-14T15:40:41;8.20;99.90
34833;DHT22;55941;50.800;4.342;2022-11-14T15:48:50;8.20;99.90
34833;DHT22;55941;50.800;4.342;2022-11-14T15:51:17;8.30;99.90
34833;DHT22;55941;50.800;4.342;2022-11-14T15:53:45;8.30;99.90
34833;DHT22;55941;50.800;4.342;2022-11-14T15:56:12;8.20;99.90
34833;DHT22;55941;50.800;4.342;2022-11-14T15:58:38;8.20;99.90
34833;DHT22;55941;50.800;4.342;2022-11-14T16:01:04;8.20;99.90
34833;DHT22;55941;50.800;4.342;2022-11-14T16:03:33;8.20;99.90
34833;DHT22;55941;50.800;4.342;2022-11-14T16:05:59;8.10;99.90
34833;DHT22;55941;50.800;4.342;2022-11-14T16:08:24;8.10;99.90
34833;DHT22;55941;50.800;4.342;2022-11-14T16:10:50;8.10;99.90
34833;DHT22;55941;50.800;4.342;2022-11-14T16:13:17;8.20;99.90
34833;DHT22;55941;50.800;4.342;2022-11-14T16:15:42;8.20;99.90
34833;DHT22;55941;50.800;4.342;2022-11-14T16:18:10;8.20;99.90
34833;DHT22;55941;50.800;4.342;2022-11-14T16:20:36;8.20;99.90
34833;DHT22;55941;50.800;4.342;2022-11-14T16:23:04;8.10;99.90
34833;DHT22;55941;50.800;4.342;2022-11-14T16:25:30;7.90;99.90
34833;DHT22;55941;50.800;4.342;2022-11-14T16:27:56;8.00;99.90
34833;DHT22;55941;50.800;4.342;2022-11-14T16:30:23;8.00;99.90
34833;DHT22;55941;50.800;4.342;2022-11-14T16:32:50;8.00;99.90
34833;DHT22;55941;50.800;4.342;2022-11-14T16:35:18;7.90;99.90
34833;DHT22;55941;50.800;4.342;2022-11-14T16:37:45;8.00;99.90
34833;DHT22;55941;50.800;4.342;2022-11-14T16:42:44;8.20;99.90
34833;DHT22;55941;50.800;4.342;2022-11-14T16:45:10;8.20;99.90
34833;DHT22;55941;50.800;4.342;2022-11-14T16:47:38;8.20;99.90
34833;DHT22;55941;50.800;4.342;2022-11-14T16:50:07;8.10;99.90
34833;DHT22;55941;50.800;4.342;2022-11-14T16:52:33;8.20;99.90
34833;DHT22;55941;50.800;4.342;2022-11-14T16:54:59;8.10;99.90
34833;DHT22;55941;50.800;4.342;2022-11-14T16:57:25;8.10;99.90
34833;DHT22;55941;50.800;4.342;2022-11-14T16:59:51;8.10;99.90
34833;DHT22;55941;50.800;4.342;2022-11-14T17:02:17;8.10;99.90
34833;DHT22;55941;50.800;4.342;2022-11-14T17:04:44;8.10;99.90
34833;DHT22;55941;50.800;4.342;2022-11-14T17:07:10;8.20;99.90
34833;DHT22;55941;50.800;4.342;2022-11-14T17:09:36;8.00;99.90
34833;DHT22;55941;50.800;4.342;2022-11-14T17:12:03;8.10;99.90
34833;DHT22;55941;50.800;4.342;2022-11-14T17:14:29;8.20;99.90
34833;DHT22;55941;50.800;4.342;2022-11-14T17:16:55;8.30;99.90
34833;DHT22;55941;50.800;4.342;2022-11-14T17:19:21;8.10;99.90
34833;DHT22;55941;50.800;4.342;2022-11-14T17:21:47;8.10;99.90
34833;DHT22;55941;50.800;4.342;2022-11-14T17:24:13;8.20;99.90
34833;DHT22;55941;50.800;4.342;2022-11-14T17:26:39;8.10;99.90
34833;DHT22;55941;50.800;4.342;2022-11-14T17:29:05;8.10;99.90
34833;DHT22;55941;50.800;4.342;2022-11-14T17:31:32;8.10;99.90
34833;DHT22;55941;50.800;4.342;2022-11-14T17:33:58;8.20;99.90
34833;DHT22;55941;50.800;4.342;2022-11-14T17:36:29;8.30;99.90
34833;DHT22;55941;50.800;4.342;2022-11-14T17:38:56;8.30;99.90
34833;DHT22;55941;50.800;4.342;2022-11-14T17:41:23;8.20;99.90